createdAt,value
2022-10-11T00:00:14.816Z,2.77
2022-10-11T00:03:02.744Z,2.80
2022-10-11T00:05:50.103Z,2.93
2022-10-11T00:08:37.483Z,2.40
2022-10-11T00:11:25.034Z,2.93
2022-10-11T00:14:12.437Z,2.10
2022-10-11T00:16:59.794Z,3.13
2022-10-11T00:19:47.143Z,2.57
2022-10-11T00:22:35.492Z,3.23
2022-10-11T00:25:22.999Z,2.87
2022-10-11T00:28:10.397Z,2.77
2022-10-11T00:30:57.820Z,2.80
2022-10-11T00:33:45.168Z,3.20
2022-10-11T00:36:32.601Z,2.67
2022-10-11T00:39:19.973Z,2.60
2022-10-11T00:42:12.090Z,2.70
2022-10-11T00:45:19.702Z,2.87
2022-10-11T00:48:14.312Z,3.07
2022-10-11T00:51:03.359Z,2.43
2022-10-11T00:53:51.737Z,2.90
2022-10-11T00:56:40.523Z,3.60
2022-10-11T00:59:29.743Z,2.30
2022-10-11T01:02:18.144Z,2.90
2022-10-11T01:05:29.299Z,2.60
2022-10-11T01:08:14.430Z,2.13
2022-10-11T01:11:01.818Z,2.90
2022-10-11T01:14:08.355Z,2.37
2022-10-11T01:16:55.673Z,2.93
2022-10-11T01:20:01.936Z,2.77
2022-10-11T01:23:02.155Z,2.80
2022-10-11T01:26:02.158Z,2.73
2022-10-11T01:28:51.791Z,1.90
2022-10-11T01:31:45.921Z,2.20
2022-10-11T01:34:35.995Z,2.47
2022-10-11T01:37:35.035Z,2.20
2022-10-11T01:40:35.313Z,2.97
2022-10-11T01:43:23.944Z,3.23
2022-10-11T01:46:11.735Z,2.63
2022-10-11T01:49:00.314Z,2.53
2022-10-11T01:51:51.235Z,2.77
2022-10-11T01:55:04.364Z,2.23
2022-10-11T01:57:49.624Z,2.63
2022-10-11T02:00:44.806Z,2.67
2022-10-11T02:03:46.259Z,2.37
2022-10-11T02:06:38.868Z,2.23
2022-10-11T02:09:35.765Z,2.53
2022-10-11T02:12:25.493Z,1.83
2022-10-11T02:15:14.251Z,2.27
2022-10-11T02:18:03.379Z,2.67
2022-10-11T02:20:51.088Z,2.43
2022-10-11T02:23:41.187Z,1.70
2022-10-11T02:26:30.707Z,2.67
2022-10-11T02:29:18.369Z,2.87
2022-10-11T02:32:06.997Z,2.77
2022-10-11T02:34:55.705Z,2.87
2022-10-11T02:37:45.596Z,2.47
2022-10-11T02:40:34.033Z,2.57
2022-10-11T02:43:33.264Z,2.10
2022-10-11T02:46:20.899Z,2.20
2022-10-11T02:49:08.763Z,2.93
2022-10-11T02:51:56.783Z,2.13
2022-10-11T02:54:44.121Z,2.33
2022-10-11T02:57:31.462Z,2.53
2022-10-11T03:00:18.842Z,2.43
2022-10-11T03:03:06.195Z,2.47
2022-10-11T03:05:58.458Z,2.33
2022-10-11T03:08:45.812Z,2.10
2022-10-11T03:11:33.251Z,2.20
2022-10-11T03:14:20.704Z,3.37
2022-10-11T03:17:34.443Z,2.40
2022-10-11T03:20:15.385Z,2.50
2022-10-11T03:23:02.724Z,2.60
2022-10-11T03:25:51.887Z,2.13
2022-10-11T03:28:39.326Z,2.30
2022-10-11T03:31:26.786Z,2.63
2022-10-11T03:34:14.171Z,2.27
2022-10-11T03:37:01.508Z,2.90
2022-10-11T03:39:48.849Z,2.17
2022-10-11T03:42:36.588Z,2.67
2022-10-11T03:45:24.081Z,2.00
2022-10-11T03:48:11.744Z,2.83
2022-10-11T03:50:59.148Z,2.70
2022-10-11T03:53:46.480Z,2.50
2022-10-11T03:56:33.910Z,2.80
2022-10-11T03:59:21.242Z,2.43
2022-10-11T04:02:08.629Z,3.03
2022-10-11T04:04:55.988Z,2.77
2022-10-11T04:07:43.410Z,2.43
2022-10-11T04:10:31.441Z,3.13
2022-10-11T04:13:18.855Z,2.27
2022-10-11T04:16:06.897Z,2.40
2022-10-11T04:18:54.525Z,2.37
2022-10-11T04:21:41.952Z,2.70
2022-10-11T04:24:29.331Z,2.80
2022-10-11T04:27:16.684Z,3.10
2022-10-11T04:30:04.869Z,2.97
2022-10-11T04:32:52.235Z,3.10
2022-10-11T04:35:39.568Z,3.40
2022-10-11T04:38:26.959Z,3.10
2022-10-11T04:41:15.206Z,2.60
2022-10-11T04:44:02.799Z,2.20
2022-10-11T04:46:50.150Z,2.87
2022-10-11T04:49:37.487Z,2.20
2022-10-11T04:52:26.038Z,2.33
2022-10-11T04:55:13.528Z,2.10
2022-10-11T04:58:02.083Z,2.13
2022-10-11T05:00:50.499Z,2.17
2022-10-11T05:03:38.243Z,2.57
2022-10-11T05:06:25.680Z,2.60
2022-10-11T05:09:13.219Z,2.70
2022-10-11T05:12:00.590Z,2.37
2022-10-11T05:14:48.001Z,2.67
2022-10-11T05:17:35.383Z,2.37
2022-10-11T05:20:22.698Z,2.20
2022-10-11T05:23:10.123Z,2.30
2022-10-11T05:25:57.568Z,2.40
2022-10-11T05:28:45.307Z,2.63
2022-10-11T05:31:33.039Z,2.53
2022-10-11T05:34:20.392Z,2.63
2022-10-11T05:37:07.703Z,2.40
2022-10-11T05:39:55.111Z,2.10
2022-10-11T05:42:42.552Z,2.20
2022-10-11T05:45:29.942Z,2.43
2022-10-11T05:48:17.321Z,2.33
2022-10-11T05:51:06.186Z,2.33
2022-10-11T05:53:53.545Z,3.07
2022-10-11T05:56:40.890Z,2.30
2022-10-11T05:59:28.228Z,2.77
2022-10-11T06:02:16.310Z,2.87
2022-10-11T06:05:03.652Z,2.50
2022-10-11T06:07:51.365Z,2.73
2022-10-11T06:10:39.052Z,2.53
2022-10-11T06:13:26.486Z,2.43
2022-10-11T06:16:13.838Z,2.93
2022-10-11T06:19:01.420Z,2.70
2022-10-11T06:21:48.756Z,2.60
2022-10-11T06:24:36.084Z,3.07
2022-10-11T06:27:23.408Z,3.10
2022-10-11T06:30:10.866Z,2.97
2022-10-11T06:33:01.139Z,3.23
2022-10-11T06:35:57.531Z,3.03
2022-10-11T06:38:45.623Z,3.20
2022-10-11T06:41:33.014Z,3.97
2022-10-11T06:44:20.420Z,2.97
2022-10-11T06:47:08.045Z,3.77
2022-10-11T06:49:55.471Z,3.73
2022-10-11T06:52:42.787Z,3.93
2022-10-11T06:55:30.134Z,3.30
2022-10-11T06:58:17.542Z,4.53
2022-10-11T07:01:06.808Z,3.37
2022-10-11T07:03:54.998Z,3.47
2022-10-11T07:06:42.408Z,4.83
2022-10-11T07:09:30.739Z,4.63
2022-10-11T07:12:18.140Z,3.30
2022-10-11T07:15:05.726Z,3.67
2022-10-11T07:17:53.078Z,4.33
2022-10-11T07:20:40.472Z,2.83
2022-10-11T07:23:27.821Z,3.60
2022-10-11T07:26:15.172Z,3.17
2022-10-11T07:29:02.644Z,3.00
2022-10-11T07:31:50.037Z,2.97
2022-10-11T07:34:37.410Z,2.67
2022-10-11T07:37:24.768Z,2.80
2022-10-11T07:40:12.232Z,2.77
2022-10-11T07:43:00.711Z,3.33
2022-10-11T07:45:52.957Z,3.37
2022-10-11T07:48:40.685Z,3.17
2022-10-11T07:51:28.050Z,2.80
2022-10-11T07:54:15.390Z,3.10
2022-10-11T07:57:02.712Z,2.70
2022-10-11T07:59:50.509Z,2.90
2022-10-11T08:02:37.893Z,3.07
2022-10-11T08:05:25.389Z,3.13
2022-10-11T08:08:12.745Z,2.97
2022-10-11T08:11:00.387Z,2.70
2022-10-11T08:13:47.732Z,2.87
2022-10-11T08:16:35.867Z,2.93
2022-10-11T08:19:23.297Z,2.83
2022-10-11T08:22:10.711Z,3.33
2022-10-11T08:24:58.070Z,3.33
2022-10-11T08:27:45.414Z,3.40
2022-10-11T08:30:33.442Z,2.70
2022-10-11T08:33:21.938Z,3.40
2022-10-11T08:36:10.359Z,3.07
2022-10-11T08:38:58.406Z,3.03
2022-10-11T08:41:52.956Z,2.97
2022-10-11T08:45:09.533Z,2.70
2022-10-11T08:47:47.911Z,2.93
2022-10-11T08:50:35.428Z,2.60
2022-10-11T08:53:27.230Z,3.60
2022-10-11T08:56:15.262Z,3.23
2022-10-11T08:59:05.070Z,2.97
2022-10-11T09:02:02.132Z,2.47
2022-10-11T09:04:51.368Z,2.73
2022-10-11T09:07:49.102Z,3.00
2022-10-11T09:10:43.647Z,3.22
2022-10-11T09:13:35.613Z,3.10
2022-10-11T09:17:04.220Z,3.45
2022-10-11T09:20:03.094Z,3.00
2022-10-11T09:23:01.714Z,3.40
2022-10-11T09:26:10.171Z,3.28
2022-10-11T09:29:01.357Z,3.10
2022-10-11T09:31:53.681Z,3.20
2022-10-11T09:34:40.704Z,3.00
2022-10-11T09:37:38.258Z,3.28
2022-10-11T09:40:48.523Z,2.92
2022-10-11T09:43:35.591Z,2.70
2022-10-11T09:46:31.893Z,2.85
2022-10-11T09:49:21.587Z,2.90
2022-10-11T09:52:16.918Z,2.63
2022-10-11T09:55:04.147Z,3.10
2022-10-11T09:57:54.654Z,2.70
2022-10-11T10:00:41.640Z,2.72
2022-10-11T10:03:31.548Z,3.08
2022-10-11T10:06:25.376Z,2.90
2022-10-11T10:09:25.120Z,3.10
2022-10-11T10:12:14.551Z,2.78
2022-10-11T10:15:17.412Z,2.72
2022-10-11T10:18:10.453Z,2.58
2022-10-11T10:20:59.586Z,2.45
2022-10-11T10:23:55.280Z,2.65
2022-10-11T10:26:42.221Z,2.80
2022-10-11T10:29:29.162Z,2.90
2022-10-11T10:32:28.225Z,2.35
2022-10-11T10:35:32.375Z,2.55
2022-10-11T10:38:26.742Z,2.72
2022-10-11T10:41:16.641Z,2.67
2022-10-11T10:44:03.881Z,2.95
2022-10-11T10:46:57.406Z,2.13
2022-10-11T10:49:59.860Z,3.20
2022-10-11T10:53:04.940Z,3.33
2022-10-11T10:56:08.287Z,2.80
2022-10-11T10:59:19.820Z,2.60
2022-10-11T11:02:41.286Z,3.10
2022-10-11T11:05:51.522Z,2.50
2022-10-11T11:09:11.490Z,2.38
2022-10-11T11:12:35.776Z,2.65
2022-10-11T11:15:41.425Z,2.78
2022-10-11T11:18:52.717Z,2.90
2022-10-11T11:21:45.488Z,3.00
2022-10-11T11:24:38.670Z,2.35
2022-10-11T11:27:37.536Z,2.53
2022-10-11T11:30:45.057Z,2.47
2022-10-11T11:34:00.161Z,2.45
2022-10-11T11:36:48.959Z,2.92
2022-10-11T11:39:43.810Z,2.30
2022-10-11T11:42:43.698Z,2.55
2022-10-11T11:45:57.982Z,2.40
2022-10-11T11:48:45.456Z,2.50
2022-10-11T11:51:42.594Z,2.00
2022-10-11T11:55:03.039Z,2.03
2022-10-11T11:58:07.120Z,2.22
2022-10-11T12:01:28.815Z,2.63
2022-10-11T12:04:29.777Z,2.03
2022-10-11T12:07:20.316Z,2.60
2022-10-11T12:10:23.661Z,2.30
2022-10-11T12:13:36.945Z,2.13
2022-10-11T12:16:23.940Z,2.13
2022-10-11T12:19:14.277Z,2.33
2022-10-11T12:22:54.081Z,2.90
2022-10-11T12:25:43.867Z,2.63
2022-10-11T12:28:37.026Z,3.10
2022-10-11T12:31:30.420Z,2.23
2022-10-11T12:34:43.872Z,2.20
2022-10-11T12:37:30.752Z,1.90
2022-10-11T12:40:41.844Z,2.40
2022-10-11T12:43:36.200Z,1.77
2022-10-11T12:46:28.749Z,2.40
2022-10-11T12:49:33.399Z,2.10
2022-10-11T12:52:29.885Z,2.30
2022-10-11T12:55:37.358Z,2.40
2022-10-11T12:58:38.354Z,2.60
2022-10-11T13:01:36.927Z,2.20
2022-10-11T13:04:34.008Z,2.03
2022-10-11T13:07:23.437Z,2.27
2022-10-11T13:10:15.849Z,2.37
2022-10-11T13:13:09.829Z,3.83
2022-10-11T13:16:01.324Z,2.10
2022-10-11T13:18:50.398Z,2.40
2022-10-11T13:21:38.533Z,2.43
2022-10-11T13:24:27.666Z,2.47
2022-10-11T13:27:21.269Z,2.50
2022-10-11T13:30:16.677Z,2.97
2022-10-11T13:33:13.141Z,2.43
2022-10-11T13:36:02.544Z,2.53
2022-10-11T13:39:00.948Z,3.00
2022-10-11T13:41:47.941Z,2.83
2022-10-11T13:44:37.448Z,2.80
2022-10-11T13:47:33.688Z,2.20
2022-10-11T13:50:31.972Z,2.33
2022-10-11T13:53:18.906Z,2.37
2022-10-11T13:56:08.459Z,2.40
2022-10-11T13:58:56.474Z,2.80
2022-10-11T14:01:45.974Z,2.40
2022-10-11T14:04:39.682Z,3.00
2022-10-11T14:07:37.309Z,2.70
2022-10-11T14:10:25.785Z,2.57
2022-10-11T14:13:29.115Z,2.90
2022-10-11T14:16:16.002Z,2.40
2022-10-11T14:19:10.477Z,3.27
2022-10-11T14:21:57.477Z,2.47
2022-10-11T14:24:48.054Z,2.53
2022-10-11T14:27:36.173Z,2.43
2022-10-11T14:30:26.922Z,2.47
2022-10-11T14:33:14.787Z,2.90
2022-10-11T14:36:01.811Z,2.23
2022-10-11T14:38:50.447Z,2.50
2022-10-11T14:41:37.356Z,2.60
2022-10-11T14:44:24.436Z,2.10
2022-10-11T14:47:15.676Z,2.57
2022-10-11T14:50:20.021Z,2.13
2022-10-11T14:53:08.461Z,2.33
2022-10-11T14:55:55.754Z,2.00
2022-10-11T14:58:43.339Z,1.97
2022-10-11T15:01:30.594Z,2.07
2022-10-11T15:04:18.575Z,2.40
2022-10-11T15:07:05.691Z,2.40
2022-10-11T15:09:52.609Z,2.37
2022-10-11T15:12:39.525Z,2.23
2022-10-11T15:15:30.375Z,1.70
2022-10-11T15:18:17.579Z,2.43
2022-10-11T15:21:04.880Z,2.47
2022-10-11T15:23:55.093Z,2.47
2022-10-11T15:26:42.548Z,2.30
2022-10-11T15:29:29.498Z,2.30
2022-10-11T15:32:16.440Z,2.20
2022-10-11T15:35:03.435Z,2.27
2022-10-11T15:37:55.737Z,2.37
2022-10-11T15:40:42.706Z,2.33
2022-10-11T15:43:29.745Z,2.30
2022-10-11T15:46:20.136Z,2.70
2022-10-11T15:49:12.601Z,2.53
2022-10-11T15:51:59.552Z,3.53
2022-10-11T15:54:46.444Z,2.50
2022-10-11T15:57:33.361Z,2.10
2022-10-11T16:00:22.360Z,2.67
2022-10-11T16:03:12.772Z,2.10
2022-10-11T16:06:04.909Z,2.20
2022-10-11T16:08:52.658Z,2.40
2022-10-11T16:11:39.615Z,2.50
2022-10-11T16:14:26.525Z,2.27
2022-10-11T16:17:13.451Z,2.60
2022-10-11T16:20:00.888Z,4.43
2022-10-11T16:22:49.355Z,2.90
2022-10-11T16:25:36.992Z,2.50
2022-10-11T16:28:24.268Z,2.47
2022-10-11T16:31:14.816Z,2.17
2022-10-11T16:34:01.877Z,2.17
2022-10-11T16:36:48.829Z,2.13
2022-10-11T16:39:35.844Z,2.13
2022-10-11T16:42:23.144Z,2.30
2022-10-11T16:45:10.691Z,2.13
2022-10-11T16:47:57.742Z,2.07
2022-10-11T16:50:44.674Z,2.40
2022-10-11T16:53:34.180Z,2.03
2022-10-11T16:56:22.610Z,2.37
2022-10-11T16:59:10.178Z,2.53
2022-10-11T17:01:57.879Z,2.40
2022-10-11T17:04:45.571Z,2.77
2022-10-11T17:07:32.526Z,2.40
2022-10-11T17:10:19.424Z,2.27
2022-10-11T17:13:07.604Z,2.40
2022-10-11T17:15:54.594Z,2.27
2022-10-11T17:18:43.546Z,2.60
2022-10-11T17:21:30.603Z,2.80
2022-10-11T17:24:17.601Z,2.73
2022-10-11T17:27:05.421Z,3.17
2022-10-11T17:29:52.423Z,2.80
2022-10-11T17:32:39.814Z,2.83
2022-10-11T17:35:26.705Z,2.93
2022-10-11T17:38:13.654Z,2.83
2022-10-11T17:41:01.942Z,2.50
2022-10-11T17:43:48.903Z,2.73
2022-10-11T17:46:36.505Z,2.50
2022-10-11T17:49:23.419Z,2.53
2022-10-11T17:52:10.354Z,2.57
2022-10-11T17:54:57.265Z,2.47
2022-10-11T17:57:44.874Z,2.50
2022-10-11T18:00:31.853Z,2.47
2022-10-11T18:03:18.814Z,2.60
2022-10-11T18:06:07.998Z,2.53
2022-10-11T18:08:55.842Z,3.13
2022-10-11T18:11:42.920Z,2.67
2022-10-11T18:14:29.829Z,2.77
2022-10-11T18:17:17.676Z,3.20
2022-10-11T18:20:04.942Z,2.93
2022-10-11T18:22:53.921Z,2.83
2022-10-11T18:25:40.908Z,2.37
2022-10-11T18:28:27.882Z,2.97
2022-10-11T18:31:19.339Z,3.40
2022-10-11T18:34:10.512Z,5.17
2022-10-11T18:36:57.574Z,8.57
2022-10-11T18:39:44.705Z,8.83
2022-10-11T18:42:31.761Z,8.80
2022-10-11T18:45:18.901Z,6.23
2022-10-11T18:48:05.916Z,7.80
2022-10-11T18:51:02.319Z,6.00
2022-10-11T18:53:49.655Z,8.63
2022-10-11T18:56:37.068Z,8.27
2022-10-11T18:59:24.105Z,7.53
2022-10-11T19:02:12.073Z,7.97
2022-10-11T19:04:59.215Z,9.37
2022-10-11T19:07:46.140Z,6.70
2022-10-11T19:10:34.452Z,5.73
2022-10-11T19:13:21.575Z,5.87
2022-10-11T19:16:11.905Z,6.23
2022-10-11T19:18:59.019Z,4.97
2022-10-11T19:21:48.523Z,3.93
2022-10-11T19:24:35.459Z,3.90
2022-10-11T19:27:22.436Z,3.83
2022-10-11T19:30:09.691Z,3.33
2022-10-11T19:32:56.586Z,3.63
2022-10-11T19:35:54.653Z,4.00
2022-10-11T19:38:46.906Z,4.33
2022-10-11T19:41:33.904Z,4.73
2022-10-11T19:44:21.111Z,4.17
2022-10-11T19:47:08.086Z,3.70
2022-10-11T19:49:55.006Z,2.90
2022-10-11T19:52:44.933Z,3.37
2022-10-11T19:55:35.124Z,3.00
2022-10-11T19:58:22.020Z,3.07
2022-10-11T20:01:16.083Z,3.17
2022-10-11T20:04:08.155Z,3.13
2022-10-11T20:06:55.084Z,2.80
2022-10-11T20:09:42.009Z,2.40
2022-10-11T20:12:29.513Z,3.17
2022-10-11T20:15:16.619Z,3.03
2022-10-11T20:18:03.770Z,3.30
2022-10-11T20:20:56.027Z,3.20
2022-10-11T20:23:44.583Z,2.70
2022-10-11T20:26:31.927Z,3.20
2022-10-11T20:29:18.832Z,3.80
2022-10-11T20:32:05.789Z,3.00
2022-10-11T20:34:52.745Z,3.10
2022-10-11T20:37:39.674Z,3.37
2022-10-11T20:40:26.603Z,2.83
2022-10-11T20:43:14.843Z,3.13
2022-10-11T20:46:07.838Z,2.80
2022-10-11T20:49:01.205Z,2.60
2022-10-11T20:51:49.198Z,2.93
2022-10-11T20:54:36.159Z,2.93
2022-10-11T20:57:23.067Z,3.70
2022-10-11T21:00:10.563Z,2.97
2022-10-11T21:02:57.469Z,3.80
2022-10-11T21:05:44.479Z,3.33
2022-10-11T21:08:31.879Z,3.00
2022-10-11T21:11:18.795Z,2.83
2022-10-11T21:14:06.333Z,3.30
2022-10-11T21:16:53.247Z,3.07
2022-10-11T21:19:40.180Z,3.00
2022-10-11T21:22:27.106Z,2.90
2022-10-11T21:25:14.157Z,3.20
2022-10-11T21:28:01.398Z,2.63
2022-10-11T21:30:48.312Z,2.90
2022-10-11T21:33:36.133Z,2.60
2022-10-11T21:36:24.864Z,2.80
2022-10-11T21:39:11.860Z,3.30
2022-10-11T21:41:58.762Z,2.60
2022-10-11T21:44:45.655Z,3.37
2022-10-11T21:47:35.231Z,2.40
2022-10-11T21:50:25.660Z,2.70
2022-10-11T21:53:12.561Z,2.63
2022-10-11T21:56:00.960Z,3.33
2022-10-11T21:58:48.796Z,2.80
2022-10-11T22:01:36.771Z,3.17
2022-10-11T22:04:23.790Z,3.27
2022-10-11T22:07:10.705Z,2.60
2022-10-11T22:09:57.651Z,2.60
2022-10-11T22:12:44.579Z,4.03
2022-10-11T22:15:35.383Z,3.50
2022-10-11T22:18:25.648Z,3.73
2022-10-11T22:21:19.054Z,3.67
2022-10-11T22:24:06.265Z,3.00
2022-10-11T22:26:53.166Z,3.70
2022-10-11T22:29:40.072Z,3.43
2022-10-11T22:32:26.969Z,3.27
2022-10-11T22:35:13.980Z,2.90
2022-10-11T22:38:00.908Z,3.40
2022-10-11T22:40:48.333Z,3.50
2022-10-11T22:43:35.438Z,4.00
2022-10-11T22:46:22.374Z,3.20
2022-10-11T22:49:09.357Z,3.70
2022-10-11T22:51:56.284Z,4.63
2022-10-11T22:54:43.226Z,3.43
2022-10-11T22:57:30.125Z,4.10
2022-10-11T23:00:17.446Z,4.27
2022-10-11T23:03:04.672Z,5.43
2022-10-11T23:05:57.877Z,5.80
2022-10-11T23:08:45.338Z,5.17
2022-10-11T23:11:32.277Z,5.40
2022-10-11T23:14:19.191Z,6.83
2022-10-11T23:17:06.102Z,5.70
2022-10-11T23:19:53.060Z,4.40
2022-10-11T23:22:40.008Z,5.10
2022-10-11T23:25:27.037Z,4.00
2022-10-11T23:28:14.010Z,4.00
2022-10-11T23:31:05.278Z,3.83
2022-10-11T23:33:53.653Z,3.60
2022-10-11T23:36:40.559Z,4.13
2022-10-11T23:39:27.907Z,5.33
2022-10-11T23:42:14.819Z,7.20
2022-10-11T23:45:01.749Z,6.80
2022-10-11T23:47:48.641Z,8.07
2022-10-11T23:50:35.599Z,7.97
2022-10-11T23:53:22.555Z,8.03
2022-10-11T23:56:10.646Z,10.13
2022-10-11T23:58:57.705Z,6.40
